Time;durP1;ratioP1;P1;durP2;ratioP2;P2;SDS_P1;SDS_P2;PMS_P1;PMS_P2;Temp;Humidity;BMP_temperature;BMP_pressure;BME280_temperature;BME280_humidity;BME280_pressure;Samples;Min_cycle;Max_cycle;Signal;HPM_P1;HPM_P2
2022/06/02 00:02:54;;;;;;;649.55;411.50;;;;;;;;;;5111441;27;20385;-69
2022/06/02 00:06:24;;;;;;;640.03;392.02;;;;;;;;;;5112092;27;21073;-70
2022/06/02 00:16:51;;;;;;;623.42;344.77;;;;;;;;;;5111131;27;20109;-69
2022/06/02 00:19:21;;;;;;;625.83;354.75;;;;;;;;;;5090833;28;20031;-69
2022/06/02 00:24:18;;;;;;;640.10;350.95;;;;;;;;;;5070414;28;20403;-70
2022/06/02 00:27:23;;;;;;;631.10;361.63;;;;;;;;;;5111368;27;20397;-69
2022/06/02 00:30:09;;;;;;;624.55;357.35;;;;;;;;;;5100687;28;20043;-69
2022/06/02 00:32:56;;;;;;;620.10;343.75;;;;;;;;;;5100136;28;20028;-69
2022/06/02 00:35:22;;;;;;;645.25;323.90;;;;;;;;;;5111108;28;20042;-69
2022/06/02 00:37:52;;;;;;;606.75;350.90;;;;;;;;;;5111089;28;20031;-69
2022/06/02 00:40:19;;;;;;;610.57;323.27;;;;;;;;;;5110983;28;20534;-69
2022/06/02 00:42:57;;;;;;;609.90;317.80;;;;;;;;;;5111025;28;20387;-69
2022/06/02 00:47:37;;;;;;;602.03;349.35;;;;;;;;;;5111509;27;20566;-69
2022/06/02 00:51:41;;;;;;;602.40;337.00;;;;;;;;;;5111551;27;20569;-69
2022/06/02 01:00:42;;;;;;;607.80;330.10;;;;;;;;;;5090712;27;20858;-69
2022/06/02 01:07:53;;;;;;;609.13;347.47;;;;;;;;;;5111122;27;20570;-69
2022/06/02 01:10:27;;;;;;;534.83;337.30;;;;;;;;;;5078729;28;20876;-69
2022/06/02 01:15:23;;;;;;;638.83;310.20;;;;;;;;;;5110748;27;20442;-69
2022/06/02 01:19:53;;;;;;;667.83;321.52;;;;;;;;;;5111731;27;20385;-69
2022/06/02 01:22:19;;;;;;;675.85;316.35;;;;;;;;;;5110817;28;20026;-70
2022/06/02 01:24:57;;;;;;;572.05;298.77;;;;;;;;;;5111431;28;20028;-69
2022/06/02 01:27:52;;;;;;;645.72;322.27;;;;;;;;;;5110764;28;20024;-70
2022/06/02 01:30:22;;;;;;;713.40;327.90;;;;;;;;;;5098182;28;20171;-70
2022/06/02 01:33:08;;;;;;;670.60;318.70;;;;;;;;;;5111141;28;20054;-69
2022/06/02 01:35:43;;;;;;;643.42;316.13;;;;;;;;;;5110744;28;20028;-69
2022/06/02 01:38:27;;;;;;;755.33;336.05;;;;;;;;;;5111031;28;20039;-69
2022/06/02 01:40:53;;;;;;;755.88;344.80;;;;;;;;;;5109589;28;20031;-69
2022/06/02 01:43:25;;;;;;;756.80;332.23;;;;;;;;;;5110410;28;20032;-70
2022/06/02 01:47:02;;;;;;;701.65;318.38;;;;;;;;;;5152702;27;20129;-69
2022/06/02 01:49:57;;;;;;;745.38;340.50;;;;;;;;;;5131450;28;20019;-70
2022/06/02 01:52:24;;;;;;;647.47;335.02;;;;;;;;;;5131945;28;20379;-69
2022/06/02 01:55:00;;;;;;;543.70;327.58;;;;;;;;;;5111296;27;20441;-69
2022/06/02 01:57:45;;;;;;;678.15;320.05;;;;;;;;;;5111094;28;20097;-69
2022/06/02 02:01:41;;;;;;;583.97;325.40;;;;;;;;;;5111910;27;20384;-69
2022/06/02 02:04:22;;;;;;;712.95;326.45;;;;;;;;;;5110910;28;20024;-69
2022/06/02 02:06:51;;;;;;;714.60;323.00;;;;;;;;;;5111451;28;20028;-69
2022/06/02 02:10:27;;;;;;;658.78;313.30;;;;;;;;;;5111269;27;20396;-69
2022/06/02 02:12:58;;;;;;;676.28;323.05;;;;;;;;;;5111776;28;20024;-70
2022/06/02 02:15:33;;;;;;;720.63;347.45;;;;;;;;;;5111142;28;20028;-70
2022/06/02 02:19:54;;;;;;;733.40;325.67;;;;;;;;;;5111945;27;20384;-69
2022/06/02 02:22:33;;;;;;;611.50;313.30;;;;;;;;;;5111718;28;20077;-70
2022/06/02 02:25:02;;;;;;;766.38;334.27;;;;;;;;;;5111060;28;20321;-70
2022/06/02 02:37:41;;;;;;;759.78;338.35;;;;;;;;;;5112108;27;20581;-70
2022/06/02 02:40:25;;;;;;;668.08;310.50;;;;;;;;;;5111505;27;20573;-70
2022/06/02 02:42:58;;;;;;;656.50;323.42;;;;;;;;;;5111610;28;20073;-70
2022/06/02 02:45:27;;;;;;;687.88;322.67;;;;;;;;;;5110791;28;20503;-70
2022/06/02 02:48:51;;;;;;;659.42;320.52;;;;;;;;;;5111707;27;20457;-70
2022/06/02 02:51:17;;;;;;;688.10;325.95;;;;;;;;;;5111160;28;20457;-69
2022/06/02 02:54:11;;;;;;;577.70;359.08;;;;;;;;;;5111440;27;20418;-69
2022/06/02 02:56:45;;;;;;;555.25;322.42;;;;;;;;;;5111217;28;20028;-70
2022/06/02 03:03:10;;;;;;;639.55;312.05;;;;;;;;;;5111528;27;20629;-69
2022/06/02 03:06:38;;;;;;;618.92;321.48;;;;;;;;;;5110755;27;20113;-69
2022/06/02 03:14:51;;;;;;;563.80;340.73;;;;;;;;;;5110935;27;20562;-69
2022/06/02 03:20:36;;;;;;;647.30;323.38;;;;;;;;;;5111233;27;20450;-70
2022/06/02 03:23:06;;;;;;;714.35;330.70;;;;;;;;;;5111238;28;20031;-70
2022/06/02 03:29:28;;;;;;;594.42;342.60;;;;;;;;;;5111702;27;20385;-69
2022/06/02 03:32:43;;;;;;;599.25;326.40;;;;;;;;;;5111852;27;20573;-70
2022/06/02 03:35:23;;;;;;;699.22;322.00;;;;;;;;;;5110850;28;20106;-70
2022/06/02 03:37:55;;;;;;;686.03;332.77;;;;;;;;;;5111253;28;20103;-69
2022/06/02 03:40:54;;;;;;;489.35;250.90;;;;;;;;;;5112014;27;20896;-69
2022/06/02 03:45:11;;;;;;;628.60;342.75;;;;;;;;;;5111493;27;20426;-70
2022/06/02 03:47:37;;;;;;;;;;;;;;;;;;5111763;28;20107;-69
2022/06/02 03:50:19;;;;;;;772.75;345.60;;;;;;;;;;5110817;28;20343;-70
2022/06/02 03:52:53;;;;;;;732.58;348.88;;;;;;;;;;5111453;28;20443;-69
2022/06/02 03:55:42;;;;;;;641.95;377.08;;;;;;;;;;5111296;27;20381;-69
2022/06/02 03:58:14;;;;;;;560.15;284.27;;;;;;;;;;5112128;28;20024;-69
2022/06/02 04:01:09;;;;;;;576.33;322.17;;;;;;;;;;5153484;27;20106;-69
2022/06/02 04:03:56;;;;;;;544.13;298.27;;;;;;;;;;5152011;27;20494;-70
2022/06/02 04:07:59;;;;;;;451.52;253.55;;;;;;;;;;5111628;27;20385;-69
2022/06/02 04:14:39;;;;;;;;;;;;;;;;;;5111684;28;20067;-70
2022/06/02 04:17:21;;;;;;;;;;;;;;;;;;5091359;28;19917;-69
2022/06/02 04:23:19;;;;;;;547.65;258.27;;;;;;;;;;5111638;28;20043;-66
2022/06/02 04:28:42;;;;;;;577.28;284.13;;;;;;;;;;5112085;27;20581;-67
2022/06/02 04:31:27;;;;;;;425.63;252.52;;;;;;;;;;5109633;28;20024;-67
2022/06/02 04:35:25;;;;;;;624.35;295.50;;;;;;;;;;5111951;27;20473;-68
2022/06/02 04:38:09;;;;;;;705.13;310.83;;;;;;;;;;5110995;28;20032;-68
2022/06/02 04:40:43;;;;;;;627.42;311.52;;;;;;;;;;5111534;28;20016;-68
2022/06/02 04:43:31;;;;;;;636.28;314.27;;;;;;;;;;5111257;28;20432;-68
2022/06/02 04:46:17;;;;;;;626.65;312.08;;;;;;;;;;5110675;28;20054;-68
2022/06/02 04:49:01;;;;;;;657.97;313.42;;;;;;;;;;5111097;28;20024;-68
2022/06/02 04:52:51;;;;;;;639.20;302.52;;;;;;;;;;5111092;27;20928;-67
2022/06/02 04:56:28;;;;;;;602.47;297.38;;;;;;;;;;5111783;27;20396;-68
2022/06/02 04:59:44;;;;;;;710.47;302.35;;;;;;;;;;5111341;27;20556;-67
2022/06/02 05:02:10;;;;;;;;;;;;;;;;;;5111939;28;20027;-68
2022/06/02 05:04:36;;;;;;;;;;;;;;;;;;5111622;28;19904;-68
2022/06/02 05:07:02;;;;;;;;;;;;;;;;;;5110731;28;19911;-67
2022/06/02 05:12:46;;;;;;;713.10;302.45;;;;;;;;;;5109293;27;20469;-67
2022/06/02 05:15:30;;;;;;;688.72;308.83;;;;;;;;;;5106281;28;20431;-67
2022/06/02 05:18:13;;;;;;;647.55;319.30;;;;;;;;;;5103242;28;20034;-67
2022/06/02 05:22:02;;;;;;;712.88;323.33;;;;;;;;;;5107323;27;20385;-69
2022/06/02 05:24:58;;;;;;;688.95;317.70;;;;;;;;;;5102606;27;20114;-70
2022/06/02 05:31:30;;;;;;;673.05;323.75;;;;;;;;;;5069302;28;20419;-70
2022/06/02 05:34:14;;;;;;;643.08;312.52;;;;;;;;;;5067158;28;20028;-69
2022/06/02 05:36:46;;;;;;;649.13;317.90;;;;;;;;;;5065860;28;20055;-70
2022/06/02 05:44:29;;;;;;;660.00;316.83;;;;;;;;;;5064881;28;20635;-69
2022/06/02 05:47:18;;;;;;;637.05;311.88;;;;;;;;;;5063916;28;20056;-70
2022/06/02 05:49:56;;;;;;;644.70;323.77;;;;;;;;;;5059963;28;20044;-70
2022/06/02 05:52:31;;;;;;;651.92;317.58;;;;;;;;;;5054971;28;20053;-70
2022/06/02 05:55:15;;;;;;;645.17;317.13;;;;;;;;;;5045912;28;20040;-69
2022/06/02 05:59:30;;;;;;;646.92;297.52;;;;;;;;;;5066951;28;20391;-69
2022/06/02 06:01:57;;;;;;;604.72;277.48;;;;;;;;;;5066836;28;20032;-70
2022/06/02 06:09:59;;;;;;;666.75;301.95;;;;;;;;;;5136927;27;20316;-69
2022/06/02 06:12:31;;;;;;;656.75;315.80;;;;;;;;;;5116422;27;20038;-69
2022/06/02 06:15:03;;;;;;;600.95;297.75;;;;;;;;;;5117507;28;20016;-69
2022/06/02 06:25:07;;;;;;;596.20;299.77;;;;;;;;;;5063125;28;20406;-69
2022/06/02 06:28:01;;;;;;;649.58;312.98;;;;;;;;;;5122686;27;20614;-69
2022/06/02 06:30:33;;;;;;;631.65;308.10;;;;;;;;;;5089120;28;20418;-71
2022/06/02 06:32:59;;;;;;;585.13;299.63;;;;;;;;;;5096953;28;20022;-70
2022/06/02 06:35:44;;;;;;;574.15;310.05;;;;;;;;;;5106691;28;20089;-68
2022/06/02 06:38:10;;;;;;;581.17;309.95;;;;;;;;;;5108248;28;20119;-66
2022/06/02 06:40:46;;;;;;;584.78;310.80;;;;;;;;;;5105678;28;20050;-69
2022/06/02 06:43:27;;;;;;;610.22;305.70;;;;;;;;;;5093366;28;20039;-66
2022/06/02 06:45:59;;;;;;;679.17;325.15;;;;;;;;;;5095442;28;20607;-67
2022/06/02 06:50:24;;;;;;;466.13;255.35;;;;;;;;;;5099434;27;21107;-68
2022/06/02 06:53:02;;;;;;;407.77;258.85;;;;;;;;;;5085052;28;20024;-68
2022/06/02 06:55:36;;;;;;;552.92;289.38;;;;;;;;;;5086717;28;20548;-68
2022/06/02 07:00:21;;;;;;;607.00;286.15;;;;;;;;;;5106115;27;20392;-69
2022/06/02 07:06:10;;;;;;;432.88;255.48;;;;;;;;;;5067883;28;20618;-67
2022/06/02 07:09:00;;;;;;;447.50;253.55;;;;;;;;;;5052557;28;20033;-69
2022/06/02 07:14:44;;;;;;;545.03;282.13;;;;;;;;;;5044898;28;20040;-71
2022/06/02 07:17:17;;;;;;;532.83;284.90;;;;;;;;;;5046360;28;20025;-70
2022/06/02 07:19:55;;;;;;;528.30;287.23;;;;;;;;;;5045909;28;20021;-70
2022/06/02 07:22:45;;;;;;;554.40;289.25;;;;;;;;;;5045780;28;20047;-70
2022/06/02 07:25:14;;;;;;;546.28;291.00;;;;;;;;;;5052486;28;20021;-69
2022/06/02 07:27:51;;;;;;;611.65;296.40;;;;;;;;;;5049183;28;20021;-66
2022/06/02 07:30:27;;;;;;;605.00;301.75;;;;;;;;;;5050666;28;20071;-70
2022/06/02 07:32:56;;;;;;;629.53;300.35;;;;;;;;;;5049390;28;20057;-70
2022/06/02 07:35:40;;;;;;;662.40;304.42;;;;;;;;;;5047935;28;20036;-70
2022/06/02 07:38:26;;;;;;;;;;;;;;;;;;5106747;27;20560;-68
2022/06/02 07:40:53;;;;;;;;;;;;;;;;;;5102841;28;20225;-68
2022/06/02 07:43:19;;;;;;;;;;;;;;;;;;5111123;28;19912;-69
2022/06/02 07:45:44;;;;;;;;;;;;;;;;;;5100540;28;19919;-68
2022/06/02 07:48:10;;;;;;;;;;;;;;;;;;5109774;28;19939;-69
2022/06/02 07:52:14;;;;;;;;;;;;;;;;;;5090567;27;19924;-68
2022/06/02 07:54:40;;;;;;;;;;;;;;;;;;5094054;28;19957;-68
2022/06/02 07:57:23;;;;;;;;;;;;;;;;;;5092081;27;19916;-67
2022/06/02 07:59:49;;;;;;;;;;;;;;;;;;5095190;28;19999;-67
2022/06/02 08:02:15;;;;;;;;;;;;;;;;;;5089946;28;19916;-68
2022/06/02 08:04:41;;;;;;;;;;;;;;;;;;5091199;28;19995;-67
2022/06/02 08:07:07;;;;;;;;;;;;;;;;;;5083186;28;19917;-66
2022/06/02 08:09:33;;;;;;;;;;;;;;;;;;5073941;28;20397;-67
2022/06/02 08:12:02;;;;;;;;;;;;;;;;;;5084126;28;20351;-67
2022/06/02 08:14:28;;;;;;;;;;;;;;;;;;5087448;28;19913;-67
2022/06/02 08:16:55;;;;;;;;;;;;;;;;;;5087663;28;19989;-68
2022/06/02 08:19:23;;;;;;;;;;;;;;;;;;5085902;28;19932;-68
2022/06/02 08:21:49;;;;;;;;;;;;;;;;;;5084478;28;20391;-68
2022/06/02 08:24:17;;;;;;;214.60;195.40;;;;;;;;;;5085584;28;20378;-67
2022/06/02 08:26:43;;;;;;;;;;;;;;;;;;5085873;28;20116;-73
2022/06/02 08:29:09;;;;;;;;;;;;;;;;;;5069358;28;20487;-69
2022/06/02 08:31:38;;;;;;;218.35;194.30;;;;;;;;;;5083644;28;20398;-68
2022/06/02 08:34:04;;;;;;;;;;;;;;;;;;5083826;28;20500;-68
2022/06/02 08:36:30;;;;;;;;;;;;;;;;;;5085652;28;19956;-69
2022/06/02 08:38:56;;;;;;;;;;;;;;;;;;5086386;28;20511;-70
2022/06/02 08:41:28;;;;;;;;;;;;;;;;;;5082357;28;20523;-69
2022/06/02 08:43:54;;;;;;;;;;;;;;;;;;5083421;28;19931;-70
2022/06/02 08:46:21;;;;;;;;;;;;;;;;;;5082919;28;19913;-68
2022/06/02 08:48:48;;;;;;;;;;;;;;;;;;5090900;28;19976;-68
2022/06/02 08:51:14;;;;;;;;;;;;;;;;;;5082228;28;19915;-68
2022/06/02 08:53:40;;;;;;;;;;;;;;;;;;5088347;28;19916;-69
2022/06/02 08:56:05;;;;;;;;;;;;;;;;;;5098388;28;19915;-69
2022/06/02 08:58:32;;;;;;;;;;;;;;;;;;5107502;28;19947;-70
2022/06/02 09:00:58;;;;;;;;;;;;;;;;;;5109028;28;19930;-68
2022/06/02 09:03:25;;;;;;;;;;;;;;;;;;5108700;28;19995;-69
2022/06/02 09:05:51;;;;;;;;;;;;;;;;;;5108796;28;19908;-68
2022/06/02 09:08:23;;;;;;;444.20;273.25;;;;;;;;;;5095844;28;20542;-68
2022/06/02 09:10:49;;;;;;;;;;;;;;;;;;5093076;28;20044;-68
2022/06/02 09:13:15;;;;;;;;;;;;;;;;;;5093129;28;20403;-68
2022/06/02 09:15:41;;;;;;;;;;;;;;;;;;5093305;28;19912;-70
2022/06/02 09:18:08;;;;;;;;;;;;;;;;;;5093005;28;19924;-69
2022/06/02 09:20:34;;;;;;;;;;;;;;;;;;5087829;28;19948;-70
2022/06/02 09:23:00;;;;;;;;;;;;;;;;;;5091732;28;20571;-70
2022/06/02 09:25:26;;;;;;;;;;;;;;;;;;5092872;28;19952;-75
2022/06/02 09:27:55;;;;;;;;;;;;;;;;;;5066098;28;20523;-73
2022/06/02 09:30:22;;;;;;;;;;;;;;;;;;5084550;28;20394;-70
2022/06/02 09:32:54;;;;;;;545.72;286.15;;;;;;;;;;5078589;28;20389;-70
2022/06/02 09:35:23;;;;;;;;;;;;;;;;;;5089728;28;20067;-71
2022/06/02 09:37:54;;;;;;;308.73;229.23;;;;;;;;;;5089904;28;20404;-71
2022/06/02 09:40:40;;;;;;;350.40;223.90;;;;;;;;;;5096245;28;20032;-71
2022/06/02 09:43:06;;;;;;;;;;;;;;;;;;5093899;28;20042;-70
2022/06/02 09:45:32;;;;;;;;;;;;;;;;;;5092136;28;20421;-72
2022/06/02 09:47:58;;;;;;;;;;;;;;;;;;5092017;28;20381;-71
2022/06/02 09:50:24;;;;;;;;;;;;;;;;;;5098006;28;19912;-71
2022/06/02 09:52:50;;;;;;;;;;;;;;;;;;5095335;28;20019;-72
2022/06/02 09:55:16;;;;;;;;;;;;;;;;;;5095047;28;19927;-73
2022/06/02 09:57:57;;;;;;;;;;;;;;;;;;5090355;28;19927;-73
2022/06/02 10:00:23;;;;;;;;;;;;;;;;;;5094047;28;19912;-74
2022/06/02 10:02:49;;;;;;;;;;;;;;;;;;5096614;28;20505;-71
2022/06/02 10:05:18;;;;;;;;;;;;;;;;;;5096300;28;20292;-74
2022/06/02 10:07:44;;;;;;;;;;;;;;;;;;5091557;28;20364;-73
2022/06/02 10:10:10;;;;;;;;;;;;;;;;;;5080535;28;20403;-72
2022/06/02 10:15:21;;;;;;;;;;;;;;;;;;5090364;28;20314;-71
2022/06/02 10:17:56;;;;;;;219.52;195.63;;;;;;;;;;5091548;28;20386;-73
2022/06/02 10:20:22;;;;;;;6.15;2.33;;;;;;;;;;5091730;28;20527;-72
2022/06/02 10:23:07;;;;;;;3.88;1.50;;;;;;;;;;5084590;28;20388;-73
2022/06/02 10:25:51;;;;;;;5.45;1.88;;;;;;;;;;5067710;28;20103;-71
2022/06/02 10:28:50;;;;;;;5.70;1.98;;;;;;;;;;5063755;28;20090;-72
2022/06/02 10:31:41;;;;;;;4.28;1.67;;;;;;;;;;5031316;28;20170;-71
2022/06/02 10:34:26;;;;;;;6.53;2.60;;;;;;;;;;5064235;28;20485;-70
2022/06/02 10:36:55;;;;;;;4.28;1.60;;;;;;;;;;5064495;28;20591;-72
2022/06/02 10:39:41;;;;;;;3.97;1.75;;;;;;;;;;5065381;28;20017;-72
2022/06/02 10:42:26;;;;;;;6.07;2.05;;;;;;;;;;5063284;28;20488;-73
2022/06/02 10:44:55;;;;;;;5.57;2.00;;;;;;;;;;5064329;28;20025;-72
2022/06/02 10:47:40;;;;;;;6.00;1.88;;;;;;;;;;5070738;28;20048;-73
2022/06/02 10:50:12;;;;;;;4.82;1.50;;;;;;;;;;5086409;28;20039;-72
2022/06/02 10:53:11;;;;;;;3.75;1.50;;;;;;;;;;5083543;28;20024;-72
2022/06/02 10:55:55;;;;;;;4.68;1.65;;;;;;;;;;5048996;28;20108;-74
2022/06/02 10:58:30;;;;;;;7.20;1.63;;;;;;;;;;5107607;28;20034;-72
2022/06/02 11:00:59;;;;;;;9.88;2.50;;;;;;;;;;5092141;28;20024;-72
2022/06/02 11:03:54;;;;;;;4.80;1.80;;;;;;;;;;5106775;28;20063;-72
2022/06/02 11:06:26;;;;;;;5.13;1.63;;;;;;;;;;5067558;28;20054;-73
2022/06/02 11:08:52;;;;;;;;;;;;;;;;;;5091299;28;20534;-72
2022/06/02 11:11:33;;;;;;;7.93;2.40;;;;;;;;;;5103805;28;19947;-74
2022/06/02 11:14:18;;;;;;;7.18;2.42;;;;;;;;;;5092983;28;20044;-73
2022/06/02 11:17:13;;;;;;;7.57;2.45;;;;;;;;;;5093217;28;20118;-75
2022/06/02 11:19:57;;;;;;;4.10;1.30;;;;;;;;;;5075628;28;20039;-73
2022/06/02 11:22:42;;;;;;;7.60;2.22;;;;;;;;;;5089453;28;20016;-74
2022/06/02 11:25:17;;;;;;;4.35;1.35;;;;;;;;;;5090031;28;20101;-73
2022/06/02 11:28:02;;;;;;;7.00;1.50;;;;;;;;;;5108313;28;20055;-74
2022/06/02 11:30:57;;;;;;;2.63;1.23;;;;;;;;;;5092821;28;20035;-74
2022/06/02 11:33:23;;;;;;;5.00;1.33;;;;;;;;;;5087429;28;20042;-71
2022/06/02 11:35:49;;;;;;;4.85;1.55;;;;;;;;;;5111389;28;20114;-72
2022/06/02 11:38:36;;;;;;;4.10;1.52;;;;;;;;;;5112932;28;20429;-74
2022/06/02 11:41:28;;;;;;;4.55;1.52;;;;;;;;;;5096859;28;20039;-73
2022/06/02 11:43:57;;;;;;;3.20;1.45;;;;;;;;;;5054663;28;20040;-73
2022/06/02 11:46:41;;;;;;;4.38;1.75;;;;;;;;;;5092618;28;20480;-72
2022/06/02 11:49:27;;;;;;;3.85;1.38;;;;;;;;;;5089272;28;20097;-72
2022/06/02 11:52:02;;;;;;;12.23;2.05;;;;;;;;;;5070717;28;20020;-74
2022/06/02 11:54:47;;;;;;;6.25;1.70;;;;;;;;;;5090940;28;20030;-70
2022/06/02 11:57:32;;;;;;;8.02;2.50;;;;;;;;;;5090162;28;20156;-71
2022/06/02 12:00:16;;;;;;;9.65;2.28;;;;;;;;;;5089948;28;20033;-68
2022/06/02 12:02:51;;;;;;;6.13;1.67;;;;;;;;;;5082334;28;20422;-71
2022/06/02 12:05:18;;;;;;;7.53;1.75;;;;;;;;;;5073824;28;20035;-71
2022/06/02 12:07:51;;;;;;;8.18;2.08;;;;;;;;;;5092250;28;20515;-70
2022/06/02 12:10:27;;;;;;;4.28;1.80;;;;;;;;;;5092574;28;20081;-70
2022/06/02 12:13:01;;;;;;;5.68;1.98;;;;;;;;;;5111701;28;20429;-69
2022/06/02 12:15:39;;;;;;;8.00;1.45;;;;;;;;;;5110562;28;20028;-70
2022/06/02 12:18:08;;;;;;;7.63;1.60;;;;;;;;;;5113079;28;20077;-70
2022/06/02 12:20:45;;;;;;;3.75;1.83;;;;;;;;;;5113317;28;20027;-73
2022/06/02 12:23:20;;;;;;;8.35;1.90;;;;;;;;;;5112350;28;20055;-68
2022/06/02 12:26:04;;;;;;;5.43;1.45;;;;;;;;;;5108544;28;20046;-71
2022/06/02 12:28:49;;;;;;;7.60;1.83;;;;;;;;;;5091290;28;20042;-68
2022/06/02 12:31:18;;;;;;;7.65;1.70;;;;;;;;;;5092007;28;20020;-70
2022/06/02 12:33:44;;;;;;;3.45;1.42;;;;;;;;;;5092079;28;20525;-69
2022/06/02 12:36:26;;;;;;;5.32;2.00;;;;;;;;;;5092149;28;20044;-69
2022/06/02 12:39:10;;;;;;;6.57;1.73;;;;;;;;;;5092286;28;20051;-68
2022/06/02 12:41:39;;;;;;;4.95;1.92;;;;;;;;;;5090167;28;20389;-68
2022/06/02 12:44:24;;;;;;;7.75;2.50;;;;;;;;;;5091774;28;20099;-71
2022/06/02 12:46:59;;;;;;;6.93;1.98;;;;;;;;;;5094077;28;20043;-70
2022/06/02 12:49:44;;;;;;;7.53;2.13;;;;;;;;;;5093461;28;20112;-71
2022/06/02 12:52:16;;;;;;;6.63;2.00;;;;;;;;;;5092720;28;20024;-70
2022/06/02 12:54:54;;;;;;;5.95;1.83;;;;;;;;;;5074720;28;20035;-70
2022/06/02 12:57:36;;;;;;;7.95;2.05;;;;;;;;;;5094372;28;20075;-71
2022/06/02 13:00:08;;;;;;;9.13;2.40;;;;;;;;;;5096759;28;20452;-71
2022/06/02 13:02:46;;;;;;;6.35;1.90;;;;;;;;;;5096474;28;20379;-72
2022/06/02 13:05:12;;;;;;;9.65;2.00;;;;;;;;;;5096040;28;20069;-71
2022/06/02 13:07:39;;;;;;;7.03;1.70;;;;;;;;;;5096268;28;20020;-71
2022/06/02 13:10:05;;;;;;;5.18;1.52;;;;;;;;;;5078234;28;20035;-71
2022/06/02 13:12:40;;;;;;;4.25;1.55;;;;;;;;;;5094992;28;20017;-71
2022/06/02 13:15:16;;;;;;;7.25;2.13;;;;;;;;;;5096497;28;20030;-71
2022/06/02 13:17:48;;;;;;;9.48;1.58;;;;;;;;;;5096093;28;20028;-71
2022/06/02 13:20:51;;;;;;;9.57;2.00;;;;;;;;;;5096126;28;20027;-71
2022/06/02 13:23:23;;;;;;;6.10;1.75;;;;;;;;;;5013977;28;20034;-71
2022/06/02 13:26:10;;;;;;;8.68;1.77;;;;;;;;;;5083316;28;20025;-71
2022/06/02 13:28:54;;;;;;;6.25;1.52;;;;;;;;;;5081944;28;20035;-70
2022/06/02 13:31:28;;;;;;;5.13;1.50;;;;;;;;;;5095889;28;20031;-72
2022/06/02 13:33:57;;;;;;;4.97;1.52;;;;;;;;;;5095397;28;20525;-70
2022/06/02 13:36:38;;;;;;;6.63;1.88;;;;;;;;;;5095739;28;20043;-70
2022/06/02 13:39:10;;;;;;;4.03;1.48;;;;;;;;;;5095319;28;20099;-70
2022/06/02 13:41:53;;;;;;;11.65;1.88;;;;;;;;;;5095640;28;20389;-70
2022/06/02 13:44:22;;;;;;;6.43;2.00;;;;;;;;;;5095656;28;20016;-70
2022/06/02 13:46:57;;;;;;;6.38;1.50;;;;;;;;;;5095361;28;20473;-70
2022/06/02 13:49:24;;;;;;;8.63;1.45;;;;;;;;;;5095744;28;20032;-71
2022/06/02 13:52:09;;;;;;;4.80;1.52;;;;;;;;;;5095570;28;20020;-70
2022/06/02 13:57:46;;;;;;;9.20;2.45;;;;;;;;;;5095369;28;20047;-70
2022/06/02 14:00:31;;;;;;;10.43;1.98;;;;;;;;;;5095115;28;20035;-71
2022/06/02 14:03:06;;;;;;;8.57;2.10;;;;;;;;;;5095758;28;20027;-70
2022/06/02 14:05:51;;;;;;;5.07;2.25;;;;;;;;;;5095237;28;20027;-70
2022/06/02 14:08:27;;;;;;;7.40;1.70;;;;;;;;;;5094809;28;20035;-70
2022/06/02 14:10:59;;;;;;;8.27;2.00;;;;;;;;;;5095334;28;20031;-70
2022/06/02 14:13:52;;;;;;;6.60;1.60;;;;;;;;;;5094978;28;20024;-71
2022/06/02 14:16:30;;;;;;;5.78;1.45;;;;;;;;;;5094991;28;20032;-71
2022/06/02 14:19:02;;;;;;;5.28;1.58;;;;;;;;;;5094887;28;20077;-70
2022/06/02 14:21:30;;;;;;;4.88;1.60;;;;;;;;;;5094435;28;20035;-71
2022/06/02 14:24:08;;;;;;;8.77;2.17;;;;;;;;;;5094862;28;20070;-71
2022/06/02 14:26:53;;;;;;;7.43;2.13;;;;;;;;;;5094803;28;20035;-71
2022/06/02 14:29:28;;;;;;;4.07;1.48;;;;;;;;;;5094306;28;20032;-71
2022/06/02 14:32:02;;;;;;;7.15;1.70;;;;;;;;;;5094906;28;20047;-71
2022/06/02 14:34:49;;;;;;;3.90;1.65;;;;;;;;;;5095019;28;20024;-71
2022/06/02 14:37:18;;;;;;;7.35;2.38;;;;;;;;;;5094075;28;20544;-71
2022/06/02 14:39:50;;;;;;;5.55;1.58;;;;;;;;;;5094622;28;20028;-70
2022/06/02 14:45:20;;;;;;;11.75;2.22;;;;;;;;;;5094566;28;20035;-70
2022/06/02 14:47:57;;;;;;;4.82;1.75;;;;;;;;;;5094767;28;20024;-71
2022/06/02 14:50:23;;;;;;;6.57;1.65;;;;;;;;;;5094104;28;20024;-71
2022/06/02 14:53:09;;;;;;;8.35;2.13;;;;;;;;;;5094370;28;20471;-71
2022/06/02 14:55:53;;;;;;;4.38;1.83;;;;;;;;;;5094115;28;20036;-71
2022/06/02 14:58:28;;;;;;;7.00;1.33;;;;;;;;;;5093757;28;20023;-70
2022/06/02 15:01:09;;;;;;;5.95;1.58;;;;;;;;;;5094453;28;20055;-71
2022/06/02 15:03:54;;;;;;;6.47;1.40;;;;;;;;;;5093998;28;20020;-71
2022/06/02 15:06:23;;;;;;;5.43;1.55;;;;;;;;;;5093613;28;20106;-71
2022/06/02 15:09:00;;;;;;;6.53;2.22;;;;;;;;;;5094336;28;20016;-71
2022/06/02 15:11:45;;;;;;;8.55;1.80;;;;;;;;;;5093820;28;20032;-71
2022/06/02 15:14:14;;;;;;;3.53;1.42;;;;;;;;;;5093839;28;20028;-71
2022/06/02 15:16:43;;;;;;;4.75;1.60;;;;;;;;;;5093820;28;20492;-71
2022/06/02 15:19:27;;;;;;;5.80;1.50;;;;;;;;;;5093460;28;20081;-71
2022/06/02 15:22:01;;;;;;;4.68;1.60;;;;;;;;;;5075681;28;20503;-71
2022/06/02 15:24:36;;;;;;;4.88;1.50;;;;;;;;;;5093604;28;20439;-71
2022/06/02 15:27:14;;;;;;;4.55;1.52;;;;;;;;;;5093571;28;20049;-71
2022/06/02 15:30:00;;;;;;;6.20;2.03;;;;;;;;;;5093620;28;20170;-71
2022/06/02 15:32:50;;;;;;;2.83;1.50;;;;;;;;;;5093280;28;20024;-71
2022/06/02 15:35:28;;;;;;;3.88;1.48;;;;;;;;;;5082992;28;20067;-71
2022/06/02 15:38:09;;;;;;;3.85;1.50;;;;;;;;;;5093731;28;20059;-71
2022/06/02 15:40:36;;;;;;;5.03;1.63;;;;;;;;;;5093689;28;20103;-71
2022/06/02 15:43:38;;;;;;;4.07;1.30;;;;;;;;;;5093939;28;20047;-71
2022/06/02 15:46:24;;;;;;;11.52;2.28;;;;;;;;;;5093138;28;20020;-70
2022/06/02 15:49:00;;;;;;;7.80;2.53;;;;;;;;;;5079495;28;20046;-70
2022/06/02 15:51:39;;;;;;;7.82;2.15;;;;;;;;;;5093460;28;20020;-71
2022/06/02 15:54:18;;;;;;;6.32;1.70;;;;;;;;;;5093090;28;20060;-70
2022/06/02 15:57:02;;;;;;;5.57;1.80;;;;;;;;;;5093209;28;20054;-70
2022/06/02 15:59:28;;;;;;;5.40;1.70;;;;;;;;;;5093008;28;20032;-71
2022/06/02 16:02:08;;;;;;;3.75;1.45;;;;;;;;;;5075199;28;20384;-69
2022/06/02 16:04:49;;;;;;;6.05;1.67;;;;;;;;;;5093233;28;20503;-70
2022/06/02 16:07:45;;;;;;;8.93;2.65;;;;;;;;;;5092804;28;20020;-70
2022/06/02 16:13:24;;;;;;;8.15;2.63;;;;;;;;;;5093108;28;20045;-70
2022/06/02 16:15:56;;;;;;;11.95;2.40;;;;;;;;;;5093009;28;20074;-71
2022/06/02 16:18:40;;;;;;;10.02;2.13;;;;;;;;;;5095889;28;20384;-71
2022/06/02 16:21:42;;;;;;;8.38;1.98;;;;;;;;;;5096926;28;20024;-71
2022/06/02 16:24:27;;;;;;;5.85;2.13;;;;;;;;;;5015059;28;20037;-71
2022/06/02 16:27:12;;;;;;;7.22;2.08;;;;;;;;;;5091467;28;20036;-71
2022/06/02 16:30:00;;;;;;;6.25;2.10;;;;;;;;;;5096280;28;20107;-71
2022/06/02 16:32:26;;;;;;;4.15;1.40;;;;;;;;;;5094948;28;20021;-71
2022/06/02 16:35:05;;;;;;;5.85;1.73;;;;;;;;;;5095813;28;20499;-71
2022/06/02 16:37:37;;;;;;;5.55;1.45;;;;;;;;;;5096699;28;20089;-70
2022/06/02 16:40:06;;;;;;;6.45;2.28;;;;;;;;;;5096788;28;20047;-71
2022/06/02 16:42:42;;;;;;;8.25;2.40;;;;;;;;;;5096528;28;20020;-71
2022/06/02 16:45:11;;;;;;;7.15;2.15;;;;;;;;;;5096890;28;20361;-71
2022/06/02 16:47:56;;;;;;;5.57;1.80;;;;;;;;;;5094569;28;20104;-71
2022/06/02 16:50:29;;;;;;;3.85;1.58;;;;;;;;;;5094158;28;20032;-71
2022/06/02 16:53:02;;;;;;;6.20;1.98;;;;;;;;;;5094331;28;20023;-71
2022/06/02 16:55:46;;;;;;;5.28;2.25;;;;;;;;;;5094104;28;20059;-71
2022/06/02 16:58:15;;;;;;;5.93;2.05;;;;;;;;;;5094337;28;20035;-70
2022/06/02 17:00:50;;;;;;;5.20;1.90;;;;;;;;;;5076160;28;20093;-70
2022/06/02 17:03:35;;;;;;;4.70;2.00;;;;;;;;;;5096101;28;20026;-70
2022/06/02 17:06:04;;;;;;;5.13;2.17;;;;;;;;;;5096352;28;20024;-71
2022/06/02 17:08:43;;;;;;;4.40;1.85;;;;;;;;;;5096229;28;20023;-71
2022/06/02 17:11:12;;;;;;;9.10;1.95;;;;;;;;;;5096308;28;20415;-71
2022/06/02 17:13:38;;;;;;;7.60;2.30;;;;;;;;;;5096198;28;20460;-71
2022/06/02 17:16:07;;;;;;;5.75;2.13;;;;;;;;;;5096233;28;20064;-71
2022/06/02 17:18:43;;;;;;;10.43;2.17;;;;;;;;;;5095766;28;20021;-71
2022/06/02 17:21:18;;;;;;;6.43;2.75;;;;;;;;;;5096121;28;20024;-71
2022/06/02 17:23:53;;;;;;;7.38;1.92;;;;;;;;;;5095636;28;20020;-72
2022/06/02 17:26:38;;;;;;;4.50;1.70;;;;;;;;;;5095979;28;20073;-72
2022/06/02 17:29:13;;;;;;;5.88;2.25;;;;;;;;;;5095556;28;20387;-72
2022/06/02 17:31:39;;;;;;;3.95;1.70;;;;;;;;;;5095774;28;20020;-71
2022/06/02 17:34:14;;;;;;;6.35;2.35;;;;;;;;;;5096295;28;20032;-72
2022/06/02 17:36:49;;;;;;;6.78;1.90;;;;;;;;;;5095648;28;20043;-71
2022/06/02 17:39:24;;;;;;;6.18;2.05;;;;;;;;;;5095363;28;20020;-72
2022/06/02 17:42:09;;;;;;;4.10;1.88;;;;;;;;;;5077246;28;20038;-71
2022/06/02 17:45:02;;;;;;;7.15;1.90;;;;;;;;;;5095664;28;20150;-71
2022/06/02 17:47:44;;;;;;;8.05;2.38;;;;;;;;;;5095939;28;20352;-72
2022/06/02 17:50:16;;;;;;;6.63;2.42;;;;;;;;;;5077493;28;20370;-71